sensor_id;sensor_type;location;lat;lon;timestamp;pressure;altitude;pressure_sealevel;temperature;humidity
70053;BME280;57398;52.032;4.376;2023-04-01T00:00:03;102617.63;;;7.97;100.00
70053;BME280;57398;52.032;4.376;2023-04-01T00:02:51;102626.41;;;8.04;100.00
70053;BME280;57398;52.032;4.376;2023-04-01T00:05:39;102630.75;;;8.04;100.00
70053;BME280;57398;52.032;4.376;2023-04-01T00:08:29;102626.03;;;7.99;100.00
70053;BME280;57398;52.032;4.376;2023-04-01T00:11:17;102629.28;;;8.01;100.00
70053;BME280;57398;52.032;4.376;2023-04-01T00:14:07;102634.44;;;8.01;100.00
70053;BME280;57398;52.032;4.376;2023-04-01T00:16:55;102622.78;;;7.97;100.00
70053;BME280;57398;52.032;4.376;2023-04-01T00:19:43;102625.88;;;8.01;100.00
70053;BME280;57398;52.032;4.376;2023-04-01T00:22:31;102623.63;;;7.97;100.00
70053;BME280;57398;52.032;4.376;2023-04-01T00:25:22;102630.41;;;7.98;100.00
70053;BME280;57398;52.032;4.376;2023-04-01T00:28:11;102623.25;;;7.92;100.00
70053;BME280;57398;52.032;4.376;2023-04-01T00:31:04;102634.44;;;7.93;100.00
70053;BME280;57398;52.032;4.376;2023-04-01T00:33:52;102628.75;;;7.89;100.00
70053;BME280;57398;52.032;4.376;2023-04-01T00:36:40;102627.81;;;7.90;100.00
70053;BME280;57398;52.032;4.376;2023-04-01T00:39:28;102626.97;;;7.90;100.00
70053;BME280;57398;52.032;4.376;2023-04-01T00:42:18;102640.88;;;7.89;100.00
70053;BME280;57398;52.032;4.376;2023-04-01T00:45:29;102641.69;;;7.89;100.00
70053;BME280;57398;52.032;4.376;2023-04-01T00:48:20;102649.97;;;7.93;100.00
70053;BME280;57398;52.032;4.376;2023-04-01T00:51:14;102642.00;;;7.86;100.00
70053;BME280;57398;52.032;4.376;2023-04-01T00:54:04;102649.91;;;7.85;100.00
70053;BME280;57398;52.032;4.376;2023-04-01T00:56:55;102652.50;;;7.85;100.00
70053;BME280;57398;52.032;4.376;2023-04-01T00:59:49;102644.09;;;7.83;100.00
70053;BME280;57398;52.032;4.376;2023-04-01T01:02:41;102654.94;;;7.86;100.00
70053;BME280;57398;52.032;4.376;2023-04-01T01:05:38;103107.53;;;7.80;100.00
70053;BME280;57398;52.032;4.376;2023-04-01T01:08:43;102912.66;;;7.79;100.00
70053;BME280;57398;52.032;4.376;2023-04-01T01:11:38;102865.94;;;7.81;100.00
70053;BME280;57398;52.032;4.376;2023-04-01T01:14:38;102833.59;;;7.76;100.00
70053;BME280;57398;52.032;4.376;2023-04-01T01:17:44;102825.19;;;7.83;100.00
70053;BME280;57398;52.032;4.376;2023-04-01T01:20:48;102819.34;;;7.81;100.00
70053;BME280;57398;52.032;4.376;2023-04-01T01:27:11;102794.97;;;7.83;100.00
70053;BME280;57398;52.032;4.376;2023-04-01T01:30:14;102788.97;;;7.83;100.00
70053;BME280;57398;52.032;4.376;2023-04-01T01:33:16;102789.28;;;7.80;100.00
70053;BME280;57398;52.032;4.376;2023-04-01T01:36:12;102780.06;;;7.77;100.00
70053;BME280;57398;52.032;4.376;2023-04-01T01:39:03;102787.81;;;7.77;100.00
70053;BME280;57398;52.032;4.376;2023-04-01T01:41:52;102821.66;;;7.84;100.00
70053;BME280;57398;52.032;4.376;2023-04-01T01:44:43;102843.63;;;7.80;100.00
70053;BME280;57398;52.032;4.376;2023-04-01T01:47:33;102817.88;;;7.78;100.00
70053;BME280;57398;52.032;4.376;2023-04-01T01:50:24;102812.72;;;7.78;100.00
70053;BME280;57398;52.032;4.376;2023-04-01T01:53:14;102811.47;;;7.82;100.00
70053;BME280;57398;52.032;4.376;2023-04-01T01:56:03;102816.19;;;7.87;100.00
70053;BME280;57398;52.032;4.376;2023-04-01T01:58:53;102815.50;;;7.85;100.00
70053;BME280;57398;52.032;4.376;2023-04-01T02:01:47;102813.06;;;7.83;100.00
70053;BME280;57398;52.032;4.376;2023-04-01T02:04:39;102815.81;;;7.82;100.00
70053;BME280;57398;52.032;4.376;2023-04-01T02:07:32;102814.19;;;7.81;100.00
70053;BME280;57398;52.032;4.376;2023-04-01T02:10:25;102812.78;;;7.86;100.00
70053;BME280;57398;52.032;4.376;2023-04-01T02:13:18;102815.19;;;7.88;100.00
70053;BME280;57398;52.032;4.376;2023-04-01T02:16:13;102816.03;;;7.88;100.00
70053;BME280;57398;52.032;4.376;2023-04-01T02:19:04;102820.75;;;7.93;100.00
70053;BME280;57398;52.032;4.376;2023-04-01T02:21:56;102813.28;;;7.90;100.00
70053;BME280;57398;52.032;4.376;2023-04-01T02:24:57;102817.84;;;7.96;100.00
70053;BME280;57398;52.032;4.376;2023-04-01T02:27:47;102819.63;;;7.95;100.00
70053;BME280;57398;52.032;4.376;2023-04-01T02:30:36;102811.88;;;7.95;100.00
70053;BME280;57398;52.032;4.376;2023-04-01T02:33:27;102833.69;;;7.93;100.00
70053;BME280;57398;52.032;4.376;2023-04-01T02:36:17;102851.94;;;7.91;100.00
70053;BME280;57398;52.032;4.376;2023-04-01T02:39:05;102843.22;;;7.92;100.00
70053;BME280;57398;52.032;4.376;2023-04-01T02:41:54;102840.34;;;7.95;100.00
70053;BME280;57398;52.032;4.376;2023-04-01T02:44:43;102828.22;;;7.96;100.00
70053;BME280;57398;52.032;4.376;2023-04-01T02:47:31;103500.53;;;7.92;100.00
70053;BME280;57398;52.032;4.376;2023-04-01T02:50:19;103472.63;;;7.96;100.00
70053;BME280;57398;52.032;4.376;2023-04-01T02:53:08;103339.53;;;7.98;100.00
70053;BME280;57398;52.032;4.376;2023-04-01T02:55:56;103260.78;;;8.01;100.00
70053;BME280;57398;52.032;4.376;2023-04-01T02:58:44;103227.13;;;8.01;100.00
70053;BME280;57398;52.032;4.376;2023-04-01T03:01:34;103197.06;;;8.00;100.00
70053;BME280;57398;52.032;4.376;2023-04-01T03:04:22;103175.25;;;8.03;100.00
70053;BME280;57398;52.032;4.376;2023-04-01T03:07:10;103149.34;;;8.03;100.00
70053;BME280;57398;52.032;4.376;2023-04-01T03:09:58;103145.78;;;8.04;100.00
70053;BME280;57398;52.032;4.376;2023-04-01T03:12:46;103131.91;;;8.05;100.00
70053;BME280;57398;52.032;4.376;2023-04-01T03:15:34;103129.16;;;8.06;100.00
70053;BME280;57398;52.032;4.376;2023-04-01T03:18:24;103114.47;;;8.07;100.00
70053;BME280;57398;52.032;4.376;2023-04-01T03:21:13;103102.47;;;8.06;100.00
70053;BME280;57398;52.032;4.376;2023-04-01T03:24:02;103109.28;;;8.07;100.00
70053;BME280;57398;52.032;4.376;2023-04-01T03:26:50;103107.81;;;8.04;100.00
70053;BME280;57398;52.032;4.376;2023-04-01T03:29:38;103094.34;;;8.01;100.00
70053;BME280;57398;52.032;4.376;2023-04-01T03:32:26;103098.25;;;8.05;100.00
70053;BME280;57398;52.032;4.376;2023-04-01T03:35:16;103095.81;;;8.03;100.00
70053;BME280;57398;52.032;4.376;2023-04-01T03:38:04;103089.69;;;8.04;100.00
70053;BME280;57398;52.032;4.376;2023-04-01T03:40:52;103090.50;;;8.05;100.00
70053;BME280;57398;52.032;4.376;2023-04-01T03:43:40;103083.69;;;8.04;100.00
70053;BME280;57398;52.032;4.376;2023-04-01T03:46:29;103087.25;;;8.03;100.00
70053;BME280;57398;52.032;4.376;2023-04-01T03:49:49;103090.63;;;8.03;100.00
70053;BME280;57398;52.032;4.376;2023-04-01T03:52:39;103084.78;;;8.01;100.00
70053;BME280;57398;52.032;4.376;2023-04-01T03:55:27;103150.31;;;8.02;100.00
70053;BME280;57398;52.032;4.376;2023-04-01T03:58:15;103095.81;;;8.03;100.00
70053;BME280;57398;52.032;4.376;2023-04-01T04:01:03;103094.19;;;8.02;100.00
70053;BME280;57398;52.032;4.376;2023-04-01T04:03:51;103092.91;;;8.06;100.00
70053;BME280;57398;52.032;4.376;2023-04-01T04:06:40;103098.94;;;8.07;100.00
70053;BME280;57398;52.032;4.376;2023-04-01T04:09:31;103093.22;;;8.03;100.00
70053;BME280;57398;52.032;4.376;2023-04-01T04:12:19;103095.50;;;8.06;100.00
70053;BME280;57398;52.032;4.376;2023-04-01T04:15:09;103108.31;;;8.08;100.00
70053;BME280;57398;52.032;4.376;2023-04-01T04:17:57;103107.50;;;8.07;100.00
70053;BME280;57398;52.032;4.376;2023-04-01T04:20:45;103101.34;;;8.08;100.00
70053;BME280;57398;52.032;4.376;2023-04-01T04:23:35;103106.69;;;8.07;100.00
70053;BME280;57398;52.032;4.376;2023-04-01T04:26:25;103106.53;;;8.08;100.00
70053;BME280;57398;52.032;4.376;2023-04-01T04:29:13;103100.84;;;8.05;100.00
70053;BME280;57398;52.032;4.376;2023-04-01T04:32:01;103103.28;;;8.06;100.00
70053;BME280;57398;52.032;4.376;2023-04-01T04:34:50;103092.28;;;8.04;100.00
70053;BME280;57398;52.032;4.376;2023-04-01T04:37:38;103082.72;;;8.05;100.00
70053;BME280;57398;52.032;4.376;2023-04-01T04:40:26;103093.22;;;8.03;100.00
70053;BME280;57398;52.032;4.376;2023-04-01T04:43:16;103107.13;;;8.02;100.00
70053;BME280;57398;52.032;4.376;2023-04-01T04:46:05;103090.25;;;7.98;100.00
70053;BME280;57398;52.032;4.376;2023-04-01T04:48:53;103083.44;;;7.97;100.00
70053;BME280;57398;52.032;4.376;2023-04-01T04:51:42;103081.81;;;7.96;100.00
70053;BME280;57398;52.032;4.376;2023-04-01T04:54:30;103072.72;;;7.92;100.00
70053;BME280;57398;52.032;4.376;2023-04-01T04:57:18;103075.31;;;7.92;100.00
70053;BME280;57398;52.032;4.376;2023-04-01T05:00:09;103075.59;;;7.89;100.00
70053;BME280;57398;52.032;4.376;2023-04-01T05:02:58;103072.03;;;7.90;100.00
70053;BME280;57398;52.032;4.376;2023-04-01T05:05:50;103075.75;;;7.87;100.00
70053;BME280;57398;52.032;4.376;2023-04-01T05:08:39;103086.75;;;7.89;100.00
70053;BME280;57398;52.032;4.376;2023-04-01T05:11:28;103080.25;;;7.85;100.00
70053;BME280;57398;52.032;4.376;2023-04-01T05:14:16;103090.84;;;7.92;100.00
70053;BME280;57398;52.032;4.376;2023-04-01T05:17:08;103087.31;;;7.93;100.00
70053;BME280;57398;52.032;4.376;2023-04-01T05:19:57;103084.84;;;7.91;100.00
70053;BME280;57398;52.032;4.376;2023-04-01T05:22:45;103086.09;;;7.87;100.00
70053;BME280;57398;52.032;4.376;2023-04-01T05:25:33;103085.81;;;7.90;100.00
70053;BME280;57398;52.032;4.376;2023-04-01T05:28:25;103070.44;;;7.89;100.00
70053;BME280;57398;52.032;4.376;2023-04-01T05:31:13;103078.06;;;7.90;100.00
70053;BME280;57398;52.032;4.376;2023-04-01T05:34:02;103081.16;;;7.94;100.00
70053;BME280;57398;52.032;4.376;2023-04-01T05:36:50;103086.31;;;7.94;100.00
70053;BME280;57398;52.032;4.376;2023-04-01T05:39:39;103086.47;;;7.92;100.00
70053;BME280;57398;52.032;4.376;2023-04-01T05:42:27;103089.47;;;7.88;100.00
70053;BME280;57398;52.032;4.376;2023-04-01T05:45:15;103077.38;;;7.88;100.00
70053;BME280;57398;52.032;4.376;2023-04-01T05:48:04;103093.19;;;7.85;100.00
70053;BME280;57398;52.032;4.376;2023-04-01T05:50:53;103086.25;;;7.86;100.00
70053;BME280;57398;52.032;4.376;2023-04-01T05:53:42;103082.16;;;7.83;100.00
70053;BME280;57398;52.032;4.376;2023-04-01T05:56:30;103088.44;;;7.81;100.00
70053;BME280;57398;52.032;4.376;2023-04-01T05:59:18;103090.91;;;7.82;100.00
70053;BME280;57398;52.032;4.376;2023-04-01T06:02:07;103081.41;;;7.73;100.00
70053;BME280;57398;52.032;4.376;2023-04-01T06:05:03;103089.47;;;7.70;100.00
70053;BME280;57398;52.032;4.376;2023-04-01T06:08:01;103079.00;;;7.62;100.00
70053;BME280;57398;52.032;4.376;2023-04-01T06:11:05;103091.38;;;7.68;100.00
70053;BME280;57398;52.032;4.376;2023-04-01T06:14:18;103090.28;;;7.70;100.00
70053;BME280;57398;52.032;4.376;2023-04-01T06:17:23;103100.63;;;7.70;100.00
70053;BME280;57398;52.032;4.376;2023-04-01T06:20:20;103092.06;;;7.70;100.00
70053;BME280;57398;52.032;4.376;2023-04-01T06:23:34;103093.81;;;7.69;100.00
70053;BME280;57398;52.032;4.376;2023-04-01T06:26:34;103090.69;;;7.66;100.00
70053;BME280;57398;52.032;4.376;2023-04-01T06:29:47;103097.50;;;7.67;100.00
70053;BME280;57398;52.032;4.376;2023-04-01T06:32:54;103099.50;;;7.73;100.00
70053;BME280;57398;52.032;4.376;2023-04-01T06:36:00;103100.88;;;7.77;100.00
70053;BME280;57398;52.032;4.376;2023-04-01T06:39:06;103109.13;;;7.81;100.00
70053;BME280;57398;52.032;4.376;2023-04-01T06:42:15;103104.56;;;7.74;100.00
70053;BME280;57398;52.032;4.376;2023-04-01T06:45:16;103109.38;;;7.87;100.00
70053;BME280;57398;52.032;4.376;2023-04-01T06:48:22;103109.38;;;7.87;100.00
70053;BME280;57398;52.032;4.376;2023-04-01T06:51:22;103106.78;;;7.87;100.00
70053;BME280;57398;52.032;4.376;2023-04-01T06:54:17;103106.00;;;7.87;100.00
70053;BME280;57398;52.032;4.376;2023-04-01T06:57:18;103113.31;;;7.91;100.00
70053;BME280;57398;52.032;4.376;2023-04-01T07:00:13;103135.81;;;7.91;100.00
70053;BME280;57398;52.032;4.376;2023-04-01T07:03:13;103110.06;;;7.89;100.00
70053;BME280;57398;52.032;4.376;2023-04-01T07:06:06;103109.91;;;7.91;100.00
70053;BME280;57398;52.032;4.376;2023-04-01T07:08:58;103122.00;;;8.00;100.00
70053;BME280;57398;52.032;4.376;2023-04-01T07:11:53;103102.97;;;7.91;100.00
70053;BME280;57398;52.032;4.376;2023-04-01T07:14:46;103089.47;;;7.88;100.00
70053;BME280;57398;52.032;4.376;2023-04-01T07:17:39;103101.13;;;8.02;100.00
70053;BME280;57398;52.032;4.376;2023-04-01T07:20:31;103109.28;;;8.07;100.00
70053;BME280;57398;52.032;4.376;2023-04-01T07:23:23;103103.88;;;8.00;100.00
70053;BME280;57398;52.032;4.376;2023-04-01T07:26:18;103093.78;;;7.97;100.00
70053;BME280;57398;52.032;4.376;2023-04-01T07:29:13;103086.63;;;7.91;100.00
70053;BME280;57398;52.032;4.376;2023-04-01T07:32:12;103091.81;;;7.91;100.00
70053;BME280;57398;52.032;4.376;2023-04-01T07:35:14;103079.44;;;7.85;100.00
70053;BME280;57398;52.032;4.376;2023-04-01T07:38:14;103087.97;;;7.95;100.00
70053;BME280;57398;52.032;4.376;2023-04-01T07:41:12;103093.53;;;8.00;100.00
70053;BME280;57398;52.032;4.376;2023-04-01T07:44:13;103084.53;;;7.94;100.00
70053;BME280;57398;52.032;4.376;2023-04-01T07:47:32;103097.06;;;7.99;100.00
70053;BME280;57398;52.032;4.376;2023-04-01T07:50:26;103104.00;;;7.98;100.00
70053;BME280;57398;52.032;4.376;2023-04-01T07:53:20;103194.47;;;8.00;100.00
70053;BME280;57398;52.032;4.376;2023-04-01T07:56:12;103199.78;;;7.98;100.00
70053;BME280;57398;52.032;4.376;2023-04-01T07:59:12;103215.84;;;8.02;100.00
70053;BME280;57398;52.032;4.376;2023-04-01T08:02:10;103228.50;;;8.05;100.00
70053;BME280;57398;52.032;4.376;2023-04-01T08:05:12;103243.59;;;8.10;100.00
70053;BME280;57398;52.032;4.376;2023-04-01T08:08:08;103241.31;;;8.07;100.00
70053;BME280;57398;52.032;4.376;2023-04-01T08:11:03;103254.19;;;8.16;100.00
70053;BME280;57398;52.032;4.376;2023-04-01T08:14:04;103257.75;;;8.15;100.00
70053;BME280;57398;52.032;4.376;2023-04-01T08:17:01;103249.88;;;8.07;100.00
70053;BME280;57398;52.032;4.376;2023-04-01T08:19:59;103249.06;;;8.07;100.00
70053;BME280;57398;52.032;4.376;2023-04-01T08:22:57;103261.72;;;8.10;100.00
70053;BME280;57398;52.032;4.376;2023-04-01T08:25:51;103249.88;;;8.07;100.00
70053;BME280;57398;52.032;4.376;2023-04-01T08:28:45;103258.28;;;8.19;100.00
70053;BME280;57398;52.032;4.376;2023-04-01T08:31:37;102734.56;;;8.35;100.00
70053;BME280;57398;52.032;4.376;2023-04-01T08:34:33;102709.47;;;8.27;100.00
70053;BME280;57398;52.032;4.376;2023-04-01T08:37:28;102713.03;;;8.34;100.00
70053;BME280;57398;52.032;4.376;2023-04-01T08:44:19;102693.06;;;8.53;100.00
70053;BME280;57398;52.032;4.376;2023-04-01T08:47:33;102674.78;;;8.54;100.00
70053;BME280;57398;52.032;4.376;2023-04-01T08:51:02;102653.41;;;8.52;100.00
70053;BME280;57398;52.032;4.376;2023-04-01T08:54:14;102644.19;;;8.50;100.00
70053;BME280;57398;52.032;4.376;2023-04-01T08:57:15;102626.31;;;8.38;100.00
70053;BME280;57398;52.032;4.376;2023-04-01T09:00:20;102536.81;;;8.28;100.00
70053;BME280;57398;52.032;4.376;2023-04-01T09:06:59;102517.06;;;8.18;100.00
70053;BME280;57398;52.032;4.376;2023-04-01T09:10:02;102153.81;;;8.26;100.00
70053;BME280;57398;52.032;4.376;2023-04-01T09:13:16;102165.88;;;8.42;100.00
70053;BME280;57398;52.032;4.376;2023-04-01T09:16:28;102147.16;;;8.32;100.00
70053;BME280;57398;52.032;4.376;2023-04-01T09:19:36;102135.75;;;8.18;100.00
70053;BME280;57398;52.032;4.376;2023-04-01T09:22:50;102131.09;;;8.13;100.00
70053;BME280;57398;52.032;4.376;2023-04-01T09:25:53;102116.19;;;8.15;100.00
70053;BME280;57398;52.032;4.376;2023-04-01T09:28:53;102122.63;;;8.19;100.00
70053;BME280;57398;52.032;4.376;2023-04-01T09:31:57;102124.19;;;8.29;100.00
70053;BME280;57398;52.032;4.376;2023-04-01T09:34:54;102118.03;;;8.30;100.00
70053;BME280;57398;52.032;4.376;2023-04-01T09:37:53;102110.97;;;8.24;100.00
70053;BME280;57398;52.032;4.376;2023-04-01T09:40:47;102109.63;;;8.28;100.00
70053;BME280;57398;52.032;4.376;2023-04-01T09:44:00;102128.59;;;8.51;100.00
70053;BME280;57398;52.032;4.376;2023-04-01T09:47:03;102127.97;;;8.49;100.00
70053;BME280;57398;52.032;4.376;2023-04-01T09:50:14;102116.28;;;8.53;100.00
70053;BME280;57398;52.032;4.376;2023-04-01T09:53:16;102123.50;;;8.66;100.00
70053;BME280;57398;52.032;4.376;2023-04-01T09:59:43;102117.91;;;8.77;100.00
70053;BME280;57398;52.032;4.376;2023-04-01T10:10:02;102097.78;;;8.79;100.00
70053;BME280;57398;52.032;4.376;2023-04-01T10:13:14;102089.69;;;8.83;100.00
70053;BME280;57398;52.032;4.376;2023-04-01T10:19:59;102080.84;;;8.92;100.00
70053;BME280;57398;52.032;4.376;2023-04-01T10:23:10;102075.13;;;8.96;100.00
70053;BME280;57398;52.032;4.376;2023-04-01T10:26:25;102071.66;;;8.89;100.00
70053;BME280;57398;52.032;4.376;2023-04-01T10:46:36;102034.47;;;8.82;100.00
70053;BME280;57398;52.032;4.376;2023-04-01T10:53:33;102039.22;;;8.93;100.00
70053;BME280;57398;52.032;4.376;2023-04-01T10:56:42;102021.53;;;8.82;100.00
70053;BME280;57398;52.032;4.376;2023-04-01T10:59:51;102031.25;;;8.95;100.00
70053;BME280;57398;52.032;4.376;2023-04-01T11:06:52;102013.81;;;8.74;100.00
70053;BME280;57398;52.032;4.376;2023-04-01T11:10:30;102008.63;;;8.59;100.00
70053;BME280;57398;52.032;4.376;2023-04-01T11:13:59;102033.00;;;8.79;100.00
70053;BME280;57398;52.032;4.376;2023-04-01T11:24:57;102033.50;;;8.98;100.00
70053;BME280;57398;52.032;4.376;2023-04-01T11:28:04;102039.28;;;9.00;100.00
70053;BME280;57398;52.032;4.376;2023-04-01T11:31:08;102034.09;;;9.00;100.00
70053;BME280;57398;52.032;4.376;2023-04-01T11:34:04;102033.97;;;9.16;100.00
70053;BME280;57398;52.032;4.376;2023-04-01T11:37:06;102025.88;;;9.11;100.00
70053;BME280;57398;52.032;4.376;2023-04-01T11:40:07;102028.66;;;9.25;100.00
70053;BME280;57398;52.032;4.376;2023-04-01T11:43:02;102019.19;;;9.17;100.00
70053;BME280;57398;52.032;4.376;2023-04-01T11:46:03;102021.78;;;9.17;100.00
70053;BME280;57398;52.032;4.376;2023-04-01T11:49:07;102013.28;;;9.23;100.00
70053;BME280;57398;52.032;4.376;2023-04-01T11:52:08;102005.03;;;9.34;100.00
70053;BME280;57398;52.032;4.376;2023-04-01T11:55:18;101978.59;;;9.24;100.00
70053;BME280;57398;52.032;4.376;2023-04-01T11:58:31;101985.63;;;9.45;100.00
70053;BME280;57398;52.032;4.376;2023-04-01T12:01:29;101961.78;;;9.20;100.00
70053;BME280;57398;52.032;4.376;2023-04-01T12:04:34;101964.56;;;9.18;100.00
70053;BME280;57398;52.032;4.376;2023-04-01T12:07:43;101938.41;;;8.98;100.00
70053;BME280;57398;52.032;4.376;2023-04-01T12:10:39;101941.81;;;8.99;100.00
70053;BME280;57398;52.032;4.376;2023-04-01T12:13:35;101942.69;;;9.06;100.00
70053;BME280;57398;52.032;4.376;2023-04-01T12:17:06;101946.16;;;9.13;100.00
70053;BME280;57398;52.032;4.376;2023-04-01T12:20:01;101941.59;;;9.30;100.00
70053;BME280;57398;52.032;4.376;2023-04-01T12:22:59;101950.03;;;9.39;100.00
70053;BME280;57398;52.032;4.376;2023-04-01T12:26:09;101947.44;;;9.39;100.00
70053;BME280;57398;52.032;4.376;2023-04-01T12:29:13;101936.91;;;9.40;100.00
70053;BME280;57398;52.032;4.376;2023-04-01T12:32:16;101928.81;;;9.29;100.00
70053;BME280;57398;52.032;4.376;2023-04-01T12:35:21;101926.03;;;9.30;100.00
70053;BME280;57398;52.032;4.376;2023-04-01T12:38:21;101924.59;;;9.28;100.00
70053;BME280;57398;52.032;4.376;2023-04-01T12:41:18;101926.59;;;9.26;100.00
70053;BME280;57398;52.032;4.376;2023-04-01T12:44:52;101908.22;;;9.27;100.00
70053;BME280;57398;52.032;4.376;2023-04-01T12:48:05;101897.47;;;9.09;100.00
70053;BME280;57398;52.032;4.376;2023-04-01T12:51:31;101922.63;;;9.30;100.00
70053;BME280;57398;52.032;4.376;2023-04-01T12:57:53;101895.13;;;9.14;100.00
70053;BME280;57398;52.032;4.376;2023-04-01T13:01:02;101898.63;;;9.06;100.00
70053;BME280;57398;52.032;4.376;2023-04-01T13:10:53;101927.69;;;9.38;100.00
70053;BME280;57398;52.032;4.376;2023-04-01T13:14:04;101916.81;;;9.28;100.00
70053;BME280;57398;52.032;4.376;2023-04-01T13:17:15;101918.50;;;9.35;100.00
70053;BME280;57398;52.032;4.376;2023-04-01T13:20:14;101919.50;;;9.56;100.00
70053;BME280;57398;52.032;4.376;2023-04-01T13:23:29;101932.25;;;9.72;100.00
70053;BME280;57398;52.032;4.376;2023-04-01T13:26:27;101910.97;;;9.62;100.00
70053;BME280;57398;52.032;4.376;2023-04-01T13:29:21;101895.84;;;9.44;100.00
70053;BME280;57398;52.032;4.376;2023-04-01T13:32:23;101879.72;;;9.27;100.00
70053;BME280;57398;52.032;4.376;2023-04-01T13:35:38;101882.81;;;9.37;100.00
70053;BME280;57398;52.032;4.376;2023-04-01T13:38:47;101868.78;;;9.32;100.00
70053;BME280;57398;52.032;4.376;2023-04-01T13:41:54;101869.28;;;9.20;100.00
70053;BME280;57398;52.032;4.376;2023-04-01T13:44:48;101852.53;;;9.01;100.00
70053;BME280;57398;52.032;4.376;2023-04-01T13:48:06;101849.78;;;8.88;100.00
70053;BME280;57398;52.032;4.376;2023-04-01T13:51:21;101844.88;;;8.93;100.00
70053;BME280;57398;52.032;4.376;2023-04-01T13:54:41;101844.59;;;8.88;100.00
70053;BME280;57398;52.032;4.376;2023-04-01T13:57:49;101847.03;;;9.11;100.00
70053;BME280;57398;52.032;4.376;2023-04-01T14:00:56;101841.34;;;9.01;100.00
70053;BME280;57398;52.032;4.376;2023-04-01T14:07:32;101854.88;;;8.96;100.00
70053;BME280;57398;52.032;4.376;2023-04-01T14:10:35;101857.72;;;9.01;100.00
70053;BME280;57398;52.032;4.376;2023-04-01T14:13:32;101878.13;;;9.26;100.00
70053;BME280;57398;52.032;4.376;2023-04-01T14:16:36;101873.41;;;9.36;100.00
70053;BME280;57398;52.032;4.376;2023-04-01T14:19:45;101874.41;;;9.57;100.00
70053;BME280;57398;52.032;4.376;2023-04-01T14:22:42;101872.44;;;9.59;100.00
70053;BME280;57398;52.032;4.376;2023-04-01T14:25:52;101859.75;;;9.71;100.00
70053;BME280;57398;52.032;4.376;2023-04-01T14:28:48;101854.16;;;9.67;100.00
70053;BME280;57398;52.032;4.376;2023-04-01T14:31:51;101848.69;;;9.83;100.00
70053;BME280;57398;52.032;4.376;2023-04-01T14:35:05;101832.97;;;9.63;100.00
70053;BME280;57398;52.032;4.376;2023-04-01T14:41:19;101843.22;;;10.00;100.00
70053;BME280;57398;52.032;4.376;2023-04-01T14:44:22;101828.97;;;9.89;100.00
70053;BME280;57398;52.032;4.376;2023-04-01T14:47:25;101821.22;;;9.96;100.00
70053;BME280;57398;52.032;4.376;2023-04-01T14:50:18;101811.72;;;9.75;100.00
70053;BME280;57398;52.032;4.376;2023-04-01T14:53:12;101802.78;;;9.56;100.00
70053;BME280;57398;52.032;4.376;2023-04-01T14:56:04;101805.63;;;9.61;100.00
70053;BME280;57398;52.032;4.376;2023-04-01T14:58:57;101807.41;;;9.60;100.00
70053;BME280;57398;52.032;4.376;2023-04-01T15:01:55;101815.59;;;9.64;100.00
70053;BME280;57398;52.032;4.376;2023-04-01T15:04:57;101815.25;;;9.46;100.00
70053;BME280;57398;52.032;4.376;2023-04-01T15:08:09;101822.69;;;9.49;100.00
70053;BME280;57398;52.032;4.376;2023-04-01T15:11:46;101822.06;;;9.25;100.00
70053;BME280;57398;52.032;4.376;2023-04-01T15:14:52;101844.03;;;9.29;100.00
70053;BME280;57398;52.032;4.376;2023-04-01T15:17:53;101860.69;;;9.20;100.00
70053;BME280;57398;52.032;4.376;2023-04-01T15:21:23;101865.63;;;9.15;100.00
70053;BME280;57398;52.032;4.376;2023-04-01T15:24:21;101874.81;;;9.17;100.00
70053;BME280;57398;52.032;4.376;2023-04-01T15:27:21;101892.19;;;9.17;100.00
70053;BME280;57398;52.032;4.376;2023-04-01T15:30:27;101906.09;;;9.31;100.00
70053;BME280;57398;52.032;4.376;2023-04-01T15:33:31;101910.00;;;9.41;100.00
70053;BME280;57398;52.032;4.376;2023-04-01T15:36:36;101918.19;;;9.45;100.00
70053;BME280;57398;52.032;4.376;2023-04-01T15:39:39;101919.84;;;9.31;100.00
70053;BME280;57398;52.032;4.376;2023-04-01T15:42:41;101925.72;;;9.40;100.00
70053;BME280;57398;52.032;4.376;2023-04-01T15:45:44;101935.66;;;9.36;100.00
70053;BME280;57398;52.032;4.376;2023-04-01T15:52:10;101946.41;;;9.33;100.00
70053;BME280;57398;52.032;4.376;2023-04-01T15:55:25;101936.88;;;9.19;100.00
70053;BME280;57398;52.032;4.376;2023-04-01T15:58:38;101953.69;;;9.08;100.00
70053;BME280;57398;52.032;4.376;2023-04-01T16:01:37;101924.22;;;8.94;100.00
70053;BME280;57398;52.032;4.376;2023-04-01T16:04:42;101958.31;;;9.13;100.00
70053;BME280;57398;52.032;4.376;2023-04-01T16:07:51;101970.91;;;9.16;100.00
70053;BME280;57398;52.032;4.376;2023-04-01T16:10:58;101968.88;;;9.11;100.00
70053;BME280;57398;52.032;4.376;2023-04-01T16:13:59;101983.44;;;9.12;100.00
70053;BME280;57398;52.032;4.376;2023-04-01T16:17:07;101990.78;;;9.09;100.00
70053;BME280;57398;52.032;4.376;2023-04-01T16:20:02;101995.63;;;9.12;100.00
70053;BME280;57398;52.032;4.376;2023-04-01T16:23:04;102008.09;;;9.23;100.00
70053;BME280;57398;52.032;4.376;2023-04-01T16:26:05;102013.91;;;9.25;100.00
70053;BME280;57398;52.032;4.376;2023-04-01T16:29:03;102017.13;;;9.27;100.00
70053;BME280;57398;52.032;4.376;2023-04-01T16:32:12;102024.09;;;9.27;100.00
70053;BME280;57398;52.032;4.376;2023-04-01T16:35:23;102031.09;;;9.26;100.00
70053;BME280;57398;52.032;4.376;2023-04-01T16:38:22;102033.47;;;9.28;100.00
70053;BME280;57398;52.032;4.376;2023-04-01T16:41:16;102036.28;;;9.26;100.00
70053;BME280;57398;52.032;4.376;2023-04-01T16:44:13;102046.09;;;9.31;100.00
70053;BME280;57398;52.032;4.376;2023-04-01T16:47:11;102052.63;;;9.27;100.00
70053;BME280;57398;52.032;4.376;2023-04-01T16:50:13;102055.38;;;9.25;100.00